createdAt,value
2019-03-24T00:01:24.468Z,18.50
2019-03-24T00:03:54.791Z,24.57
2019-03-24T00:06:25.116Z,24.43
2019-03-24T00:08:57.079Z,21.43
2019-03-24T00:11:27.196Z,18.97
2019-03-24T00:13:57.304Z,30.73
2019-03-24T00:16:27.641Z,17.60
2019-03-24T00:18:57.963Z,18.53
2019-03-24T00:21:28.287Z,26.67
2019-03-24T00:23:58.815Z,18.17
2019-03-24T00:26:29.138Z,21.63
2019-03-24T00:28:59.259Z,25.93
2019-03-24T00:31:29.376Z,18.03
2019-03-24T00:33:59.905Z,14.90
2019-03-24T00:36:30.229Z,19.17
2019-03-24T00:39:00.553Z,18.77
2019-03-24T00:41:31.084Z,18.93
2019-03-24T00:44:01.407Z,17.40
2019-03-24T00:46:31.728Z,20.37
2019-03-24T00:49:02.058Z,42.47
2019-03-24T00:51:32.376Z,18.43
2019-03-24T00:54:02.904Z,26.33
2019-03-24T00:56:33.224Z,15.63
2019-03-24T00:59:03.553Z,15.50
2019-03-24T01:01:33.875Z,21.57
2019-03-24T01:04:04.430Z,23.47
2019-03-24T01:06:34.923Z,19.43
2019-03-24T01:09:07.714Z,25.90
2019-03-24T01:11:38.448Z,16.43
2019-03-24T01:14:08.778Z,17.80
2019-03-24T01:16:39.094Z,16.07
2019-03-24T01:19:09.215Z,13.77
2019-03-24T01:21:39.537Z,19.20
2019-03-24T01:24:09.656Z,19.87
2019-03-24T01:26:39.997Z,15.23
2019-03-24T01:29:11.327Z,18.13
2019-03-24T01:31:41.651Z,16.70
2019-03-24T01:34:11.770Z,22.33
2019-03-24T01:36:42.094Z,16.27
2019-03-24T01:39:13.237Z,19.40
2019-03-24T01:41:43.561Z,14.27
2019-03-24T01:44:13.679Z,13.07
2019-03-24T01:46:44.208Z,14.47
2019-03-24T01:49:14.327Z,11.47
2019-03-24T01:51:44.855Z,14.20
2019-03-24T01:54:15.179Z,11.63
2019-03-24T01:56:45.492Z,14.57
2019-03-24T01:59:15.623Z,12.67
2019-03-24T02:01:46.150Z,19.63
2019-03-24T02:04:16.474Z,14.07
2019-03-24T02:06:46.798Z,8.20
2019-03-24T02:09:17.534Z,12.37
2019-03-24T02:11:47.859Z,16.17
2019-03-24T02:14:18.179Z,14.30
2019-03-24T02:16:48.708Z,10.47
2019-03-24T02:19:19.035Z,14.93
2019-03-24T02:21:49.355Z,20.40
2019-03-24T02:24:19.679Z,17.00
2019-03-24T02:26:50.008Z,20.10
2019-03-24T02:29:39.580Z,15.23
2019-03-24T02:32:09.904Z,19.03
2019-03-24T02:34:40.022Z,17.27
2019-03-24T02:37:10.550Z,13.37
2019-03-24T02:39:40.876Z,14.50
2019-03-24T02:42:11.198Z,15.70
2019-03-24T02:44:41.521Z,11.27
2019-03-24T02:47:11.844Z,13.60
2019-03-24T02:49:42.177Z,12.97
2019-03-24T02:52:13.722Z,10.07
2019-03-24T02:54:43.839Z,15.40
2019-03-24T02:57:14.169Z,17.20
2019-03-24T02:59:44.306Z,11.87
2019-03-24T03:02:14.609Z,13.07
2019-03-24T03:04:45.119Z,15.43
2019-03-24T03:07:15.458Z,12.47
2019-03-24T03:09:45.991Z,17.40
2019-03-24T03:12:16.515Z,16.03
2019-03-24T03:14:46.838Z,26.53
2019-03-24T03:17:17.370Z,17.27
2019-03-24T03:19:47.689Z,21.03
2019-03-24T03:22:18.014Z,19.63
2019-03-24T03:24:48.340Z,12.67
2019-03-24T03:27:19.276Z,19.43
2019-03-24T03:29:49.598Z,23.10
2019-03-24T03:32:19.738Z,12.20
2019-03-24T03:34:50.277Z,20.83
2019-03-24T03:37:20.366Z,27.13
2019-03-24T03:39:51.101Z,19.77
2019-03-24T03:42:21.628Z,20.73
2019-03-24T03:44:51.753Z,21.57
2019-03-24T03:47:22.073Z,18.47
2019-03-24T03:49:52.804Z,25.37
2019-03-24T03:52:23.119Z,20.33
2019-03-24T03:54:53.452Z,20.87
2019-03-24T03:57:23.572Z,20.93
2019-03-24T03:59:53.895Z,20.97
2019-03-24T04:02:24.012Z,15.60
2019-03-24T04:04:54.748Z,17.73
2019-03-24T04:07:25.074Z,20.70
2019-03-24T04:09:55.417Z,17.27
2019-03-24T04:12:25.923Z,19.20
2019-03-24T04:14:56.245Z,19.43
2019-03-24T04:17:26.460Z,16.63
2019-03-24T04:19:56.893Z,16.80
2019-03-24T04:22:27.022Z,14.83
2019-03-24T04:24:57.747Z,19.20
2019-03-24T04:27:27.864Z,14.47
2019-03-24T04:29:58.184Z,18.13
2019-03-24T04:32:28.716Z,15.13
2019-03-24T04:34:59.450Z,19.47
2019-03-24T04:37:29.562Z,21.83
2019-03-24T04:40:00.201Z,19.70
2019-03-24T04:42:31.036Z,19.47
2019-03-24T04:45:01.358Z,21.93
2019-03-24T04:47:31.683Z,22.73
2019-03-24T04:50:02.210Z,22.40
2019-03-24T04:52:32.540Z,18.33
2019-03-24T04:55:02.858Z,28.07
2019-03-24T04:57:33.182Z,30.10
2019-03-24T05:00:05.349Z,21.17
2019-03-24T05:02:35.468Z,20.50
2019-03-24T05:05:07.839Z,16.87
2019-03-24T05:07:39.189Z,19.97
2019-03-24T05:10:12.993Z,18.00
2019-03-24T05:12:43.207Z,19.40
2019-03-24T05:15:14.054Z,14.97
2019-03-24T05:17:44.373Z,19.27
2019-03-24T05:20:14.697Z,26.50
2019-03-24T05:22:45.024Z,19.60
2019-03-24T05:25:15.549Z,19.47
2019-03-24T05:27:46.079Z,22.33
2019-03-24T05:30:16.613Z,14.13
2019-03-24T05:32:46.931Z,18.13
2019-03-24T05:35:17.253Z,19.73
2019-03-24T05:37:47.578Z,13.63
2019-03-24T05:40:17.903Z,24.07
2019-03-24T05:42:48.225Z,20.97
2019-03-24T05:45:18.958Z,18.80
2019-03-24T05:47:49.487Z,17.60
2019-03-24T05:50:19.810Z,23.67
2019-03-24T05:52:50.134Z,15.63
2019-03-24T05:55:20.253Z,25.70
2019-03-24T05:57:50.986Z,18.57
2019-03-24T06:00:21.313Z,17.47
2019-03-24T06:02:51.634Z,19.47
2019-03-24T06:05:23.597Z,19.13
2019-03-24T06:07:54.124Z,19.50
2019-03-24T06:10:24.477Z,18.50
2019-03-24T06:12:54.772Z,14.80
2019-03-24T06:15:25.302Z,17.80
2019-03-24T06:17:55.624Z,20.93
2019-03-24T06:20:25.953Z,22.47
2019-03-24T06:22:56.271Z,20.93
2019-03-24T06:25:27.622Z,25.57
2019-03-24T06:27:58.204Z,18.03
2019-03-24T06:30:28.677Z,15.80
2019-03-24T06:32:58.714Z,17.03
2019-03-24T06:35:28.916Z,22.00
2019-03-24T06:37:59.443Z,13.93
2019-03-24T06:40:29.767Z,19.57
2019-03-24T06:42:59.885Z,15.60
2019-03-24T06:45:30.621Z,14.70
2019-03-24T06:48:00.943Z,24.20
2019-03-24T06:50:31.267Z,21.17
2019-03-24T06:53:01.795Z,13.83
2019-03-24T06:55:32.325Z,19.90
2019-03-24T06:58:02.855Z,13.53
2019-03-24T07:00:33.178Z,18.33
2019-03-24T07:03:03.501Z,18.70
2019-03-24T07:05:33.622Z,15.93
2019-03-24T07:08:03.945Z,17.77
2019-03-24T07:10:34.473Z,22.23
2019-03-24T07:13:04.799Z,16.53
2019-03-24T07:15:35.529Z,15.07
2019-03-24T07:18:08.619Z,17.07
2019-03-24T07:20:38.222Z,16.57
2019-03-24T07:23:08.337Z,23.63
2019-03-24T07:25:38.513Z,18.47
2019-03-24T07:28:08.784Z,18.57
2019-03-24T07:30:39.029Z,16.77
2019-03-24T07:33:08.837Z,16.27
2019-03-24T07:35:39.141Z,20.63
2019-03-24T07:38:09.670Z,26.23
2019-03-24T07:40:39.994Z,18.05
2019-03-24T07:43:10.529Z,16.20
2019-03-24T07:45:41.056Z,21.75
2019-03-24T07:48:18.974Z,16.50
2019-03-24T07:50:42.989Z,17.45
2019-03-24T07:53:13.865Z,15.98
2019-03-24T07:55:44.393Z,21.40
2019-03-24T07:58:14.717Z,24.67
2019-03-24T08:00:45.040Z,22.37
2019-03-24T08:03:15.568Z,13.90
2019-03-24T08:05:45.895Z,17.85
2019-03-24T08:08:16.217Z,18.10
2019-03-24T08:10:46.745Z,28.12
2019-03-24T08:13:17.478Z,18.07
2019-03-24T08:15:47.803Z,17.75
2019-03-24T08:18:18.330Z,21.57
2019-03-24T08:20:48.449Z,12.23
2019-03-24T08:23:19.183Z,19.02
2019-03-24T08:25:49.507Z,12.58
2019-03-24T08:28:20.026Z,20.45
2019-03-24T08:30:50.563Z,13.62
2019-03-24T08:33:20.889Z,24.43
2019-03-24T08:35:52.446Z,20.00
2019-03-24T08:38:22.978Z,11.40
2019-03-24T08:40:53.167Z,23.77
2019-03-24T08:43:23.411Z,13.30
2019-03-24T08:45:54.147Z,14.18
2019-03-24T08:48:24.263Z,15.85
2019-03-24T08:50:54.997Z,16.65
2019-03-24T08:53:25.321Z,16.30
2019-03-24T08:55:55.857Z,14.85
2019-03-24T08:58:26.377Z,22.62
2019-03-24T09:00:56.701Z,20.62
2019-03-24T09:03:27.434Z,17.98
2019-03-24T09:05:57.761Z,21.07
2019-03-24T09:08:28.288Z,12.88
2019-03-24T09:10:58.815Z,15.50
2019-03-24T09:13:32.828Z,23.50
2019-03-24T09:16:03.355Z,18.85
2019-03-24T09:18:33.885Z,17.65
2019-03-24T09:21:04.210Z,17.90
2019-03-24T09:23:35.142Z,12.73
2019-03-24T09:26:05.707Z,22.62
2019-03-24T09:28:36.612Z,17.15
2019-03-24T09:31:06.730Z,18.95
2019-03-24T09:33:37.055Z,16.20
2019-03-24T09:36:07.582Z,18.30
2019-03-24T09:38:38.115Z,19.48
2019-03-24T09:41:08.640Z,19.17
2019-03-24T09:43:39.168Z,10.23
2019-03-24T09:46:09.493Z,18.20
2019-03-24T09:48:40.020Z,16.27
2019-03-24T09:51:10.548Z,17.37
2019-03-24T09:53:40.873Z,15.53
2019-03-24T09:56:11.199Z,14.10
2019-03-24T09:58:41.930Z,12.75
2019-03-24T10:01:12.474Z,12.28
2019-03-24T10:03:42.782Z,15.15
2019-03-24T10:06:13.110Z,17.57
2019-03-24T10:08:47.339Z,18.40
2019-03-24T10:11:15.801Z,12.75
2019-03-24T10:13:46.124Z,13.75
2019-03-24T10:16:16.656Z,14.75
2019-03-24T10:18:46.963Z,12.25
2019-03-24T10:21:17.300Z,15.65
2019-03-24T10:23:47.624Z,16.27
2019-03-24T10:26:37.404Z,15.93
2019-03-24T10:29:07.934Z,13.72
2019-03-24T10:31:38.351Z,14.93
2019-03-24T10:34:08.785Z,12.30
2019-03-24T10:36:39.314Z,11.43
2019-03-24T10:39:09.637Z,15.50
2019-03-24T10:41:40.375Z,14.53
2019-03-24T10:44:22.755Z,13.95
2019-03-24T10:46:53.105Z,17.02
2019-03-24T10:49:25.207Z,18.52
2019-03-24T10:51:55.816Z,21.87
2019-03-24T10:54:25.880Z,11.63
2019-03-24T10:56:55.810Z,46.70
2019-03-24T10:59:25.819Z,15.48
2019-03-24T11:01:56.272Z,11.88
2019-03-24T11:04:26.718Z,17.98
2019-03-24T11:06:57.124Z,14.03
2019-03-24T11:09:27.279Z,15.60
2019-03-24T11:11:57.897Z,13.68
2019-03-24T11:14:27.825Z,15.50
2019-03-24T11:16:57.925Z,16.27
2019-03-24T11:19:35.660Z,17.05
2019-03-24T11:22:00.099Z,16.25
2019-03-24T11:24:32.462Z,15.72
2019-03-24T11:27:03.196Z,12.53
2019-03-24T11:29:33.310Z,17.48
2019-03-24T11:32:03.387Z,20.27
2019-03-24T11:34:33.291Z,18.42
2019-03-24T11:37:03.198Z,22.22
2019-03-24T11:39:33.464Z,17.75
2019-03-24T11:42:03.477Z,16.93
2019-03-24T11:44:34.819Z,13.75
2019-03-24T11:47:05.590Z,19.80
2019-03-24T11:49:45.531Z,14.80
2019-03-24T11:52:07.467Z,16.00
2019-03-24T11:54:37.784Z,20.92
2019-03-24T11:57:08.194Z,16.93
2019-03-24T11:59:38.844Z,20.72
2019-03-24T12:02:09.574Z,16.82
2019-03-24T12:04:39.691Z,17.75
2019-03-24T12:07:10.220Z,20.45
2019-03-24T12:09:40.338Z,16.30
2019-03-24T12:12:10.866Z,14.13
2019-03-24T12:14:41.189Z,14.90
2019-03-24T12:17:11.505Z,11.50
2019-03-24T12:19:41.840Z,15.00
2019-03-24T12:22:12.366Z,16.52
2019-03-24T12:24:42.700Z,24.25
2019-03-24T12:27:13.014Z,13.88
2019-03-24T12:29:43.337Z,14.15
2019-03-24T12:32:15.551Z,15.03
2019-03-24T12:34:46.242Z,11.40
2019-03-24T12:37:16.561Z,11.75
2019-03-24T12:39:46.875Z,12.93
2019-03-24T12:42:17.209Z,13.20
2019-03-24T12:44:47.536Z,13.35
2019-03-24T12:47:18.266Z,18.90
2019-03-24T12:49:48.590Z,19.37
2019-03-24T12:52:18.708Z,21.62
2019-03-24T12:54:49.037Z,18.73
2019-03-24T12:57:19.358Z,28.87
2019-03-24T12:59:49.684Z,22.95
2019-03-24T13:02:19.799Z,20.95
2019-03-24T13:04:50.124Z,22.52
2019-03-24T13:07:20.648Z,19.82
2019-03-24T13:09:50.975Z,11.95
2019-03-24T13:12:21.300Z,13.28
2019-03-24T13:14:51.622Z,15.05
2019-03-24T13:17:21.948Z,10.82
2019-03-24T13:19:52.699Z,13.53
2019-03-24T13:22:23.822Z,9.43
2019-03-24T13:24:54.363Z,15.58
2019-03-24T13:27:24.678Z,11.35
2019-03-24T13:29:54.985Z,12.20
2019-03-24T13:32:25.322Z,8.80
2019-03-24T13:34:55.442Z,7.58
2019-03-24T13:37:25.764Z,8.90
2019-03-24T13:39:56.088Z,11.83
2019-03-24T13:42:26.412Z,15.05
2019-03-24T13:44:56.940Z,16.62
2019-03-24T13:47:27.469Z,27.27
2019-03-24T13:49:57.797Z,13.35
2019-03-24T13:52:28.208Z,12.80
2019-03-24T13:54:58.645Z,19.87
2019-03-24T13:57:29.278Z,13.22
2019-03-24T13:59:59.900Z,10.53
2019-03-24T14:02:30.026Z,14.33
2019-03-24T14:05:00.555Z,25.70
2019-03-24T14:07:30.869Z,18.50
2019-03-24T14:10:01.210Z,24.18
2019-03-24T14:12:31.411Z,31.60
2019-03-24T14:15:02.057Z,23.52
2019-03-24T14:17:32.384Z,19.42
2019-03-24T14:20:02.703Z,16.20
2019-03-24T14:22:33.025Z,17.52
2019-03-24T14:25:04.790Z,24.10
2019-03-24T14:27:35.313Z,20.40
2019-03-24T14:30:08.094Z,22.58
2019-03-24T14:32:38.416Z,19.50
2019-03-24T14:35:10.571Z,20.15
2019-03-24T14:37:41.113Z,16.85
2019-03-24T14:40:11.845Z,14.85
2019-03-24T14:42:42.376Z,14.98
2019-03-24T14:45:13.109Z,12.70
2019-03-24T14:47:43.637Z,17.90
2019-03-24T14:50:14.208Z,11.90
2019-03-24T14:52:44.489Z,20.27
2019-03-24T14:55:15.018Z,12.43
2019-03-24T14:57:45.546Z,29.40
2019-03-24T15:00:30.824Z,12.73
2019-03-24T15:03:01.143Z,19.90
2019-03-24T15:05:31.467Z,18.07
2019-03-24T15:08:06.501Z,17.35
2019-03-24T15:10:36.825Z,24.23
2019-03-24T15:13:07.762Z,16.50
2019-03-24T15:15:38.343Z,16.85
2019-03-24T15:18:09.026Z,11.90
2019-03-24T15:20:39.553Z,12.05
2019-03-24T15:23:10.088Z,25.72
2019-03-24T15:25:40.814Z,11.68
2019-03-24T15:28:11.153Z,6.35
2019-03-24T15:30:41.461Z,10.18
2019-03-24T15:33:11.786Z,15.45
2019-03-24T15:35:42.314Z,7.35
2019-03-24T15:38:12.639Z,11.73
2019-03-24T15:40:42.760Z,14.03
2019-03-24T15:43:13.081Z,11.43
2019-03-24T15:45:43.199Z,15.80
2019-03-24T15:48:13.523Z,10.60
2019-03-24T15:50:44.669Z,12.63
2019-03-24T15:53:15.194Z,9.58
2019-03-24T15:55:45.326Z,14.63
2019-03-24T15:58:15.639Z,14.17
2019-03-24T16:00:49.281Z,10.93
2019-03-24T16:03:19.793Z,17.32
2019-03-24T16:06:02.015Z,13.87
2019-03-24T16:08:32.293Z,11.97
2019-03-24T16:11:02.820Z,16.90
2019-03-24T16:13:33.136Z,18.77
2019-03-24T16:16:03.263Z,20.00
2019-03-24T16:18:33.588Z,27.27
2019-03-24T16:21:04.116Z,30.77
2019-03-24T16:23:34.439Z,28.30
2019-03-24T16:26:04.561Z,24.53
2019-03-24T16:28:34.678Z,22.97
2019-03-24T16:31:05.210Z,15.60
2019-03-24T16:33:35.734Z,15.90
2019-03-24T16:36:05.855Z,14.23
2019-03-24T16:38:36.381Z,17.30
2019-03-24T16:41:06.705Z,17.83
2019-03-24T16:43:37.029Z,25.67
2019-03-24T16:46:07.561Z,26.10
2019-03-24T16:48:37.885Z,22.63
2019-03-24T16:51:08.614Z,25.40
2019-03-24T16:53:38.950Z,32.93
2019-03-24T16:56:09.263Z,31.20
2019-03-24T16:58:39.578Z,26.23
2019-03-24T17:01:09.799Z,23.43
2019-03-24T17:03:40.643Z,26.50
2019-03-24T17:06:10.971Z,29.63
2019-03-24T17:08:41.496Z,32.77
2019-03-24T17:11:12.031Z,28.17
2019-03-24T17:13:48.083Z,28.73
2019-03-24T17:16:18.612Z,26.17
2019-03-24T17:18:49.141Z,34.93
2019-03-24T17:21:19.464Z,40.60
2019-03-24T17:23:49.786Z,40.70
2019-03-24T17:26:20.572Z,48.60
2019-03-24T17:28:50.847Z,49.23
2019-03-24T17:31:40.623Z,52.07
2019-03-24T17:34:10.947Z,40.03
2019-03-24T17:36:41.270Z,41.20
2019-03-24T17:39:11.795Z,56.30
2019-03-24T17:41:42.123Z,43.83
2019-03-24T17:44:12.866Z,53.13
2019-03-24T17:46:43.387Z,60.13
2019-03-24T17:49:13.730Z,71.97
2019-03-24T17:51:44.038Z,43.20
2019-03-24T17:54:14.356Z,29.27
2019-03-24T17:56:45.093Z,24.70
2019-03-24T17:59:15.415Z,33.37
2019-03-24T18:01:45.736Z,26.87
2019-03-24T18:04:16.265Z,32.87
2019-03-24T18:06:46.793Z,32.23
2019-03-24T18:09:17.117Z,26.83
2019-03-24T18:11:47.446Z,30.40
2019-03-24T18:14:17.969Z,33.47
2019-03-24T18:16:48.513Z,34.10
2019-03-24T18:19:18.841Z,36.83
2019-03-24T18:21:50.289Z,37.10
2019-03-24T18:24:20.203Z,35.77
2019-03-24T18:26:50.277Z,31.77
2019-03-24T18:29:20.279Z,38.93
2019-03-24T18:31:50.338Z,31.83
2019-03-24T18:34:21.733Z,27.93
2019-03-24T18:36:51.623Z,36.10
2019-03-24T18:39:21.507Z,36.10
2019-03-24T18:41:51.614Z,31.57
2019-03-24T18:44:21.601Z,33.10
2019-03-24T18:46:51.682Z,31.03
2019-03-24T18:49:21.648Z,40.10
2019-03-24T18:51:51.727Z,32.27
2019-03-24T18:54:21.628Z,49.37
2019-03-24T18:56:52.259Z,43.83
2019-03-24T18:59:22.159Z,43.10
2019-03-24T19:01:52.360Z,51.87
2019-03-24T19:04:23.361Z,54.87
2019-03-24T19:06:53.341Z,42.53
2019-03-24T19:09:23.319Z,41.70
2019-03-24T19:11:53.661Z,50.33
2019-03-24T19:14:23.768Z,56.23
2019-03-24T19:16:53.793Z,51.83
2019-03-24T19:19:23.856Z,61.03
2019-03-24T19:21:53.777Z,55.47
2019-03-24T19:24:23.859Z,51.97
2019-03-24T19:26:55.236Z,50.60
2019-03-24T19:29:25.291Z,47.23
2019-03-24T19:31:55.337Z,58.13
2019-03-24T19:34:25.399Z,38.80
2019-03-24T19:36:57.007Z,43.13
2019-03-24T19:39:27.559Z,52.63
2019-03-24T19:41:57.560Z,36.77
2019-03-24T19:44:27.545Z,34.43
2019-03-24T19:46:57.552Z,38.13
2019-03-24T19:49:27.657Z,40.10
2019-03-24T19:51:58.223Z,36.43
2019-03-24T19:54:29.200Z,44.20
2019-03-24T19:56:59.350Z,41.97
2019-03-24T19:59:29.286Z,44.30
2019-03-24T20:01:59.379Z,54.67
2019-03-24T20:04:29.408Z,49.50
2019-03-24T20:06:59.454Z,68.03
2019-03-24T20:09:29.445Z,54.63
2019-03-24T20:11:59.289Z,49.10
2019-03-24T20:14:29.301Z,57.87
2019-03-24T20:17:00.173Z,52.70
2019-03-24T20:19:30.465Z,50.60
2019-03-24T20:22:00.771Z,85.33
2019-03-24T20:24:31.229Z,76.10
2019-03-24T20:27:01.629Z,42.63
2019-03-24T20:29:32.085Z,37.93
2019-03-24T20:32:02.431Z,33.67
2019-03-24T20:34:33.231Z,36.17
2019-03-24T20:37:04.059Z,32.57
2019-03-24T20:39:34.894Z,31.67
2019-03-24T20:42:06.249Z,37.43
2019-03-24T20:44:36.582Z,45.43
2019-03-24T20:47:07.154Z,50.17
2019-03-24T20:49:37.837Z,38.30
2019-03-24T20:52:08.162Z,32.47
2019-03-24T20:54:38.688Z,43.33
2019-03-24T20:57:09.011Z,39.50
2019-03-24T20:59:39.336Z,43.13
2019-03-24T21:02:09.661Z,38.63
2019-03-24T21:04:40.392Z,30.93
2019-03-24T21:07:10.907Z,36.00
2019-03-24T21:09:41.247Z,30.50
2019-03-24T21:12:11.368Z,26.13
2019-03-24T21:14:41.481Z,27.73
2019-03-24T21:17:11.806Z,37.93
2019-03-24T21:19:42.339Z,33.40
2019-03-24T21:22:12.863Z,42.03
2019-03-24T21:24:43.596Z,33.37
2019-03-24T21:27:17.401Z,31.93
2019-03-24T21:29:47.930Z,30.97
2019-03-24T21:32:18.253Z,41.23
2019-03-24T21:34:48.782Z,41.10
2019-03-24T21:37:19.106Z,40.00
2019-03-24T21:39:49.433Z,48.47
2019-03-24T21:42:19.958Z,37.70
2019-03-24T21:44:50.716Z,36.27
2019-03-24T21:47:21.015Z,42.37
2019-03-24T21:49:51.337Z,45.97
2019-03-24T21:52:21.662Z,42.40
2019-03-24T21:54:52.190Z,29.10
2019-03-24T21:57:22.717Z,36.97
2019-03-24T21:59:52.839Z,40.90
2019-03-24T22:02:23.573Z,47.53
2019-03-24T22:04:55.922Z,32.30
2019-03-24T22:07:25.448Z,64.13
2019-03-24T22:09:55.780Z,83.70
2019-03-24T22:12:26.300Z,43.87
2019-03-24T22:14:57.640Z,45.57
2019-03-24T22:17:27.978Z,46.20
2019-03-24T22:19:58.493Z,40.57
2019-03-24T22:22:28.825Z,48.77
2019-03-24T22:24:59.149Z,35.87
2019-03-24T22:27:29.676Z,30.57
2019-03-24T22:30:00.318Z,42.57
2019-03-24T22:32:30.733Z,48.13
2019-03-24T22:35:01.253Z,53.80
2019-03-24T22:37:31.585Z,72.67
2019-03-24T22:40:02.114Z,136.17
2019-03-24T22:42:32.645Z,111.97
2019-03-24T22:45:02.965Z,120.43
2019-03-24T22:47:33.292Z,121.60
2019-03-24T22:50:05.866Z,95.33
2019-03-24T22:52:36.193Z,95.10
2019-03-24T22:55:08.561Z,90.17
2019-03-24T22:57:38.885Z,82.57
2019-03-24T23:00:16.171Z,52.83
2019-03-24T23:02:46.496Z,53.03
2019-03-24T23:05:16.819Z,49.67
2019-03-24T23:07:47.348Z,50.63
2019-03-24T23:10:17.671Z,48.03
2019-03-24T23:12:48.610Z,51.27
2019-03-24T23:15:18.933Z,47.60
2019-03-24T23:17:49.257Z,48.93
2019-03-24T23:20:19.580Z,47.07
2019-03-24T23:22:49.897Z,52.80
2019-03-24T23:25:20.228Z,46.57
2019-03-24T23:27:50.756Z,53.13
2019-03-24T23:30:21.490Z,56.87
2019-03-24T23:32:52.018Z,44.20
2019-03-24T23:35:22.342Z,54.37
2019-03-24T23:37:52.666Z,58.70
2019-03-24T23:40:23.402Z,43.77
2019-03-24T23:42:53.725Z,48.13
2019-03-24T23:45:24.047Z,40.37
2019-03-24T23:48:06.055Z,34.07
2019-03-24T23:50:36.368Z,41.17
2019-03-24T23:53:06.487Z,43.37
2019-03-24T23:55:36.811Z,37.53
2019-03-24T23:58:07.134Z,36.73
